Detall de PIREP

Printer-friendly versionPDF version

[2015/02/22 16:43:00]
Flight IATA:CT2107
Pilot Number:012
Company ICAO:CAT
Aircraft Type:DC3/A
PAX:0
Aircraft Registration:CARGO
Departing Airport: LEMD
Destination Airport: LEVC
Alternate Airport:LEPA
Online: VATSIM
Route:NANDO M871 ABOSI
Flight Level:F100
No Slew and time accel
No pause
Crash detect
Detect pilot in Cockpit between each 30 and 45 minutes
16:43 Zero fuel Weight: 20226 Lbs, Fuel Weight: 2420 Lbs
16:43 VATSIM:LEMD 221630Z 16003KT 120V220 CAVOK 14/00 Q1014 NOSIG
16:43 VATSIM:LEVC 221630Z 31013KT 280V350 9999 FEW025 18/M02 Q1010 WS ALL RWY NOSIG
16:44 Parking Brakes off
16:48 Take-off
16:48 Take off Weight: 22623 Lbs
16:48 Wind: 000º @ 002 Knots Heading: 141º
16:48 POS N40º 28´ 27´´ W003º 33´ 56´´
16:48 Gear Up: 097 Knots
16:59 TOC
16:59 Fuel Weight: 2244 Lb
17:03 Wind:340º@022 Knots Heading: 088º Ground Speed: 174 Knots Altitude 10039 ft
17:18 Wind:325º@027 Knots Heading: 103º Ground Speed: 180 Knots Altitude 10003 ft
17:22 TOD
17:22 Fuel Weight: 1980 Lb
17:33 Wind:322º@024 Knots Heading: 112º Ground Speed: 201 Knots Altitude 5974 ft
17:43 Flaps:1 at 132 Knots
17:44 Gear Down: 114 Knots
17:45 Flaps:2 at 114 Knots
17:45 Flaps:3 at 95 Knots
17:48 Wind:339º@009 Knots Heading: 298º Ground Speed: 076 Knots Altitude 393 ft
17:48 TouchDown:Rate -260 ft/min Speed: 63 Knots
17:48 Flaps:0 at 42 Knots
17:48 VATSIM:LEVC 221730Z 13006KT 080V160 9999 FEW040 14/04 Q1011 WS ALL RWY NOSIG
17:49 Land
17:49 Wind:331º@009 Knots
17:49 Heading: 286º
17:49 Flight Duration: 01:01
17:49 Landing Weight: 21931 Lbs
17:49 POS N39º 29´ 23´´ W000º 28´ 56´´
17:49 Parking brakes on
17:49 Block to Block Duration: 01:05
17:49 Final Fuel: 1704 Lbls
17:49 Spent Fuel: 716 Lbls
17:49 Flight Length: 168 NM
17:49 TOD Land Length: 75 NM

Exportar CSV

Powered by Drupal - Modified by Danger4k